createdAt,value
2022-11-09T20:39:53.293Z,100872.91
2022-11-09T20:42:59.383Z,100880.91
2022-11-09T20:46:06.953Z,100877.91
2022-11-09T20:49:12.703Z,100868.72
2022-11-09T20:52:18.619Z,100876.75
2022-11-09T20:55:25.382Z,100874.56
2022-11-09T20:58:32.791Z,100877.78
2022-11-09T21:01:38.900Z,100876.06
2022-11-09T21:04:45.131Z,100872.34
2022-11-09T21:07:50.959Z,100868.28
2022-11-09T21:10:56.912Z,100868.66
2022-11-09T21:14:03.075Z,100851.25
2022-11-09T21:17:08.742Z,100868.72
2022-11-09T21:20:15.112Z,100874.41
2022-11-09T21:23:21.205Z,100876.22
2022-11-09T21:26:46.355Z,100876.72
2022-11-09T21:29:52.440Z,100876.75
2022-11-09T21:32:58.518Z,100880.31
2022-11-09T21:36:09.077Z,100883.41
2022-11-09T21:39:15.147Z,100875.19
2022-11-09T21:42:21.149Z,100883.97
2022-11-09T21:45:27.623Z,100879.06
2022-11-09T21:48:34.263Z,100881.34
2022-11-09T21:51:40.827Z,100882.31
2022-11-09T21:54:46.927Z,100876.03
2022-11-09T21:57:52.655Z,100881.59
2022-11-09T22:01:02.273Z,100878.00
2022-11-09T22:04:08.265Z,100874.75
2022-11-09T22:07:14.426Z,100877.53
2022-11-09T22:10:20.186Z,100876.88
2022-11-09T22:13:44.635Z,100880.91
2022-11-09T22:16:50.741Z,100878.81
2022-11-09T22:20:15.205Z,100887.22
2022-11-09T22:23:22.563Z,100878.50
2022-11-09T22:26:29.701Z,100884.00
2022-11-09T22:29:35.464Z,100878.66
2022-11-09T22:32:41.462Z,100880.78
2022-11-09T22:35:53.648Z,100873.97
2022-11-09T22:38:59.733Z,100878.66
2022-11-09T22:42:05.400Z,100884.31
2022-11-09T22:45:12.229Z,100873.78
2022-11-09T22:48:18.093Z,100887.41
2022-11-09T22:51:24.090Z,100890.28
2022-11-09T22:54:29.990Z,100889.19
2022-11-09T22:57:38.103Z,100887.53
2022-11-09T23:00:43.845Z,100891.09
2022-11-09T23:03:49.815Z,100895.28
2022-11-09T23:06:55.861Z,100898.00
2022-11-09T23:10:01.859Z,100903.84
2022-11-09T23:13:08.046Z,100896.41
2022-11-09T23:16:13.760Z,100890.75
2022-11-09T23:19:19.455Z,100889.28
2022-11-09T23:22:25.199Z,100884.78
2022-11-09T23:25:49.650Z,100886.41
2022-11-09T23:28:55.746Z,100878.63
2022-11-09T23:32:01.537Z,100888.84
2022-11-09T23:35:07.611Z,100879.44
2022-11-09T23:38:13.734Z,100879.75
2022-11-09T23:41:19.456Z,100873.47
2022-11-09T23:44:25.271Z,100877.81
2022-11-09T23:47:31.321Z,100872.81
2022-11-09T23:50:37.390Z,100882.03
2022-11-09T23:53:43.118Z,100880.25
2022-11-09T23:56:48.771Z,100876.06
2022-11-09T23:59:54.442Z,100876.22
